createdAt,value
2022-11-07T00:01:28.591Z,10.23
2022-11-07T00:03:55.544Z,9.57
2022-11-07T00:06:22.586Z,10.05
2022-11-07T00:08:51.289Z,12.57
2022-11-07T00:11:18.131Z,18.13
2022-11-07T00:13:44.865Z,9.30
2022-11-07T00:16:11.895Z,8.18
2022-11-07T00:18:39.162Z,8.82
2022-11-07T00:21:08.707Z,8.27
2022-11-07T00:23:38.234Z,17.20
2022-11-07T00:26:07.959Z,10.55
2022-11-07T00:28:39.872Z,7.53
2022-11-07T00:31:08.149Z,7.45
2022-11-07T00:33:35.660Z,14.98
2022-11-07T00:36:03.081Z,14.45
2022-11-07T00:38:30.489Z,14.95
2022-11-07T00:41:02.860Z,8.95
2022-11-07T00:43:31.019Z,13.90
2022-11-07T00:46:00.262Z,8.98
2022-11-07T00:48:27.183Z,17.25
2022-11-07T00:50:53.877Z,19.58
2022-11-07T00:53:20.761Z,11.70
2022-11-07T00:55:47.779Z,7.65
2022-11-07T00:58:16.126Z,13.45
2022-11-07T01:00:43.694Z,10.55
2022-11-07T01:03:28.821Z,13.50
2022-11-07T01:06:00.481Z,14.75
2022-11-07T01:08:38.314Z,9.95
2022-11-07T01:11:07.010Z,10.70
2022-11-07T01:13:34.615Z,13.35
2022-11-07T01:16:01.585Z,11.02
2022-11-07T01:18:28.540Z,10.38
2022-11-07T01:20:55.604Z,8.27
2022-11-07T01:23:23.407Z,9.52
2022-11-07T01:25:50.261Z,10.27
2022-11-07T01:28:18.880Z,10.77
2022-11-07T01:30:46.450Z,10.98
2022-11-07T01:33:14.108Z,9.07
2022-11-07T01:35:53.873Z,10.60
2022-11-07T01:38:20.785Z,13.43
2022-11-07T01:41:07.836Z,10.18
2022-11-07T01:43:46.561Z,9.77
2022-11-07T01:46:23.286Z,10.80
2022-11-07T01:48:58.319Z,12.90
2022-11-07T01:51:26.384Z,11.48
2022-11-07T01:54:07.169Z,11.73
2022-11-07T01:56:37.655Z,13.23
2022-11-07T01:59:05.232Z,10.98
2022-11-07T02:01:32.406Z,11.73
2022-11-07T02:04:00.170Z,11.90
2022-11-07T02:06:50.205Z,11.55
2022-11-07T02:09:17.149Z,9.45
2022-11-07T02:11:44.141Z,13.25
2022-11-07T02:14:18.621Z,13.43
2022-11-07T02:16:46.411Z,13.25
2022-11-07T02:19:30.939Z,9.25
2022-11-07T02:22:14.679Z,21.63
2022-11-07T02:24:41.822Z,11.07
2022-11-07T02:27:15.253Z,15.32
2022-11-07T02:29:45.602Z,11.98
2022-11-07T02:32:13.114Z,11.25
2022-11-07T02:34:39.978Z,9.35
2022-11-07T02:37:26.471Z,11.65
2022-11-07T02:39:53.189Z,12.57
2022-11-07T02:42:21.613Z,12.88
2022-11-07T02:44:48.680Z,12.93
2022-11-07T02:47:15.776Z,11.82
2022-11-07T02:49:42.579Z,14.77
2022-11-07T02:52:09.354Z,9.43
2022-11-07T02:54:36.198Z,11.30
2022-11-07T02:57:03.345Z,10.45
2022-11-07T02:59:30.293Z,16.83
2022-11-07T03:01:57.752Z,13.80
2022-11-07T03:04:24.905Z,13.40
2022-11-07T03:06:52.093Z,12.05
2022-11-07T03:09:19.007Z,9.70
2022-11-07T03:11:53.212Z,14.98
2022-11-07T03:14:20.179Z,15.80
2022-11-07T03:16:46.883Z,12.60
2022-11-07T03:19:13.797Z,9.18
2022-11-07T03:21:40.505Z,15.93
2022-11-07T03:24:07.589Z,11.68
2022-11-07T03:26:34.264Z,11.60
2022-11-07T03:29:01.181Z,15.60
2022-11-07T03:31:28.101Z,15.15
2022-11-07T03:33:55.001Z,8.85
2022-11-07T03:36:21.600Z,13.23
2022-11-07T03:38:48.588Z,13.20
2022-11-07T03:41:17.536Z,12.90
2022-11-07T03:43:47.861Z,9.80
2022-11-07T03:46:18.534Z,14.70
2022-11-07T03:48:45.454Z,11.30
2022-11-07T03:51:12.715Z,12.20
2022-11-07T03:53:42.039Z,9.93
2022-11-07T03:56:10.970Z,13.73
2022-11-07T03:58:38.749Z,12.05
2022-11-07T04:01:06.521Z,14.38
2022-11-07T04:03:33.445Z,13.80
2022-11-07T04:06:00.244Z,14.13
2022-11-07T04:08:26.962Z,8.02
2022-11-07T04:10:54.210Z,11.02
2022-11-07T04:13:39.493Z,13.18
2022-11-07T04:16:30.208Z,11.77
2022-11-07T04:18:57.797Z,14.95
2022-11-07T04:21:24.997Z,13.80
2022-11-07T04:23:51.839Z,13.25
2022-11-07T04:26:37.226Z,11.10
2022-11-07T04:29:04.124Z,16.00
2022-11-07T04:31:31.025Z,14.60
2022-11-07T04:33:57.834Z,12.55
2022-11-07T04:36:24.706Z,12.82
2022-11-07T04:38:51.436Z,12.52
2022-11-07T04:41:20.670Z,11.85
2022-11-07T04:43:53.272Z,15.18
2022-11-07T04:46:20.366Z,13.10
2022-11-07T04:48:46.976Z,9.25
2022-11-07T04:51:17.032Z,14.45
2022-11-07T04:53:43.821Z,10.07
2022-11-07T04:56:10.618Z,13.35
2022-11-07T04:58:37.391Z,9.73
2022-11-07T05:01:04.338Z,11.45
2022-11-07T05:03:31.350Z,11.00
2022-11-07T05:05:58.081Z,10.07
2022-11-07T05:08:24.848Z,11.10
2022-11-07T05:10:51.828Z,9.63
2022-11-07T05:13:18.988Z,13.60
2022-11-07T05:15:45.789Z,11.05
2022-11-07T05:18:12.648Z,8.10
2022-11-07T05:20:40.184Z,10.65
2022-11-07T05:23:15.314Z,10.60
2022-11-07T05:25:44.679Z,10.55
2022-11-07T05:28:12.795Z,9.32
2022-11-07T05:30:41.670Z,12.45
2022-11-07T05:33:10.197Z,9.77
2022-11-07T05:35:37.801Z,10.80
2022-11-07T05:38:05.110Z,7.55
2022-11-07T05:40:34.391Z,9.07
2022-11-07T05:43:09.710Z,10.27
2022-11-07T05:45:41.251Z,8.93
2022-11-07T05:48:11.074Z,7.28
2022-11-07T05:50:38.277Z,10.75
2022-11-07T05:53:05.883Z,11.18
2022-11-07T05:55:33.212Z,10.13
2022-11-07T05:58:06.710Z,10.80
2022-11-07T06:00:33.765Z,9.00
2022-11-07T06:03:00.759Z,10.55
2022-11-07T06:05:28.596Z,6.85
2022-11-07T06:07:55.992Z,7.72
2022-11-07T06:10:23.523Z,8.80
2022-11-07T06:13:04.822Z,14.27
2022-11-07T06:15:34.820Z,16.20
2022-11-07T06:18:03.239Z,9.95
2022-11-07T06:20:30.491Z,14.05
2022-11-07T06:23:01.554Z,12.18
2022-11-07T06:25:29.220Z,18.23
2022-11-07T06:28:00.445Z,12.68
2022-11-07T06:30:27.618Z,8.57
2022-11-07T06:32:54.761Z,12.00
2022-11-07T06:35:21.619Z,9.32
2022-11-07T06:37:48.478Z,12.20
2022-11-07T06:40:15.334Z,13.85
2022-11-07T06:42:42.157Z,10.75
2022-11-07T06:45:09.285Z,9.32
2022-11-07T06:47:36.144Z,16.75
2022-11-07T06:50:03.104Z,9.48
2022-11-07T06:52:29.706Z,10.90
2022-11-07T06:54:56.538Z,10.50
2022-11-07T06:57:23.245Z,12.10
2022-11-07T06:59:51.832Z,12.38
2022-11-07T07:02:37.253Z,8.88
2022-11-07T07:05:05.940Z,9.13
2022-11-07T07:07:32.677Z,11.35
2022-11-07T07:09:59.553Z,9.77
2022-11-07T07:12:26.794Z,12.77
2022-11-07T07:14:53.505Z,11.40
2022-11-07T07:17:20.127Z,16.25
2022-11-07T07:19:46.890Z,13.60
2022-11-07T07:22:14.127Z,15.30
2022-11-07T07:24:40.954Z,15.55
2022-11-07T07:27:08.017Z,16.15
2022-11-07T07:29:34.930Z,26.73
2022-11-07T07:32:01.816Z,9.40
2022-11-07T07:34:28.742Z,13.98
2022-11-07T07:36:55.386Z,17.48
2022-11-07T07:39:23.830Z,13.82
2022-11-07T07:41:50.982Z,12.90
2022-11-07T07:44:17.940Z,20.35
2022-11-07T07:46:44.673Z,16.35
2022-11-07T07:49:11.430Z,15.80
2022-11-07T07:51:38.168Z,20.50
2022-11-07T07:54:04.993Z,27.20
2022-11-07T07:56:31.843Z,13.45
2022-11-07T07:58:58.710Z,19.73
2022-11-07T08:01:25.686Z,14.93
2022-11-07T08:04:01.200Z,14.93
2022-11-07T08:06:29.962Z,18.08
2022-11-07T08:08:56.900Z,13.32
2022-11-07T08:11:23.625Z,11.55
2022-11-07T08:13:50.369Z,12.10
2022-11-07T08:16:17.240Z,9.02
2022-11-07T08:18:44.061Z,14.43
2022-11-07T08:21:11.110Z,11.38
2022-11-07T08:23:38.467Z,11.95
2022-11-07T08:26:05.974Z,12.68
2022-11-07T08:28:35.705Z,14.27
2022-11-07T08:31:04.374Z,10.27
2022-11-07T08:33:31.569Z,8.65
2022-11-07T08:36:03.010Z,12.93
2022-11-07T08:38:31.589Z,16.40
2022-11-07T08:40:59.042Z,9.68
2022-11-07T08:43:26.694Z,11.57
2022-11-07T08:45:54.671Z,9.02
2022-11-07T08:48:21.925Z,11.50
2022-11-07T08:50:56.800Z,13.98
2022-11-07T08:53:25.226Z,12.70
2022-11-07T08:55:52.884Z,22.25
2022-11-07T08:58:20.082Z,14.57
2022-11-07T09:00:47.166Z,14.15
2022-11-07T09:06:01.059Z,14.43
2022-11-07T09:08:28.029Z,13.57
2022-11-07T09:10:54.945Z,10.07
2022-11-07T09:13:21.949Z,15.10
2022-11-07T09:15:51.456Z,13.50
2022-11-07T09:18:19.740Z,15.95
2022-11-07T09:20:47.647Z,12.23
2022-11-07T09:23:14.959Z,16.38
2022-11-07T09:25:41.925Z,16.77
2022-11-07T09:28:09.062Z,13.05
2022-11-07T09:30:36.033Z,12.20
2022-11-07T09:33:02.752Z,10.93
2022-11-07T09:35:29.551Z,12.35
2022-11-07T09:37:56.501Z,9.82
2022-11-07T09:40:40.787Z,11.07
2022-11-07T09:43:22.754Z,11.40
2022-11-07T09:46:12.255Z,10.60
2022-11-07T09:48:44.921Z,11.63
2022-11-07T09:51:32.695Z,16.23
2022-11-07T09:54:07.522Z,11.65
2022-11-07T09:56:34.693Z,13.50
2022-11-07T09:59:12.785Z,15.25
2022-11-07T10:01:41.806Z,13.82
2022-11-07T10:04:26.130Z,16.98
2022-11-07T10:07:04.485Z,11.07
2022-11-07T10:09:40.074Z,12.98
2022-11-07T10:12:28.417Z,9.68
2022-11-07T10:15:04.228Z,12.05
2022-11-07T10:17:54.029Z,8.93
2022-11-07T10:20:45.123Z,12.18
2022-11-07T10:23:48.841Z,11.70
2022-11-07T10:26:20.382Z,12.50
2022-11-07T10:29:00.042Z,11.27
2022-11-07T10:31:39.106Z,7.75
2022-11-07T10:34:18.176Z,13.23
2022-11-07T10:36:44.913Z,9.23
2022-11-07T10:39:16.786Z,11.20
2022-11-07T10:42:08.814Z,12.55
2022-11-07T10:44:36.452Z,7.63
2022-11-07T10:47:14.035Z,11.25
2022-11-07T10:49:40.695Z,6.93
2022-11-07T10:52:10.006Z,10.43
2022-11-07T10:54:36.977Z,12.30
2022-11-07T10:57:10.750Z,6.90
2022-11-07T10:59:41.355Z,11.90
2022-11-07T11:02:43.768Z,11.40
2022-11-07T11:05:22.388Z,13.02
2022-11-07T11:07:49.103Z,16.08
2022-11-07T11:10:18.935Z,10.27
2022-11-07T11:12:47.906Z,12.82
2022-11-07T11:15:22.224Z,15.70
2022-11-07T11:18:16.429Z,7.67
2022-11-07T11:20:46.929Z,10.60
2022-11-07T11:23:25.590Z,10.32
2022-11-07T11:25:59.748Z,10.38
2022-11-07T11:28:40.322Z,8.32
2022-11-07T11:31:13.098Z,10.27
2022-11-07T11:33:52.195Z,7.65
2022-11-07T11:36:29.594Z,12.50
2022-11-07T11:38:56.586Z,12.82
2022-11-07T11:41:38.078Z,14.77
2022-11-07T11:44:40.193Z,11.13
2022-11-07T11:47:18.930Z,9.63
2022-11-07T11:49:52.272Z,7.88
2022-11-07T11:52:24.189Z,10.32
2022-11-07T11:54:52.976Z,10.15
2022-11-07T11:58:01.819Z,13.35
2022-11-07T12:00:34.151Z,11.60
2022-11-07T12:03:07.009Z,12.77
2022-11-07T12:05:52.550Z,13.45
2022-11-07T12:11:00.892Z,10.93
2022-11-07T12:14:23.339Z,15.68
2022-11-07T12:17:18.775Z,13.20
2022-11-07T12:19:45.362Z,12.45
2022-11-07T12:22:38.847Z,11.20
2022-11-07T12:25:23.842Z,13.35
2022-11-07T12:27:59.359Z,12.90
2022-11-07T12:31:04.467Z,10.05
2022-11-07T12:33:50.996Z,15.10
2022-11-07T12:36:39.725Z,17.50
2022-11-07T12:39:20.659Z,12.43
2022-11-07T12:41:58.288Z,13.15
2022-11-07T12:44:40.281Z,13.60
2022-11-07T12:47:38.479Z,13.07
2022-11-07T12:50:19.549Z,9.90
2022-11-07T12:52:58.247Z,10.27
2022-11-07T12:55:31.781Z,8.48
2022-11-07T12:57:59.589Z,11.05
2022-11-07T13:00:30.308Z,10.93
2022-11-07T13:03:30.781Z,9.93
2022-11-07T13:06:10.152Z,7.20
2022-11-07T13:08:49.016Z,7.45
2022-11-07T13:11:37.840Z,16.75
2022-11-07T13:14:38.217Z,8.30
2022-11-07T13:17:12.659Z,9.57
2022-11-07T13:19:44.955Z,10.63
2022-11-07T13:22:17.862Z,7.45
2022-11-07T13:25:09.391Z,6.88
2022-11-07T13:27:41.675Z,14.10
2022-11-07T13:30:17.325Z,6.15
2022-11-07T13:32:49.394Z,12.57
2022-11-07T13:35:26.734Z,12.43
2022-11-07T13:37:53.546Z,14.38
2022-11-07T13:40:26.581Z,6.93
2022-11-07T13:43:35.325Z,7.75
2022-11-07T13:46:06.060Z,10.15
2022-11-07T13:48:50.303Z,14.13
2022-11-07T13:51:26.287Z,9.57
2022-11-07T13:54:02.323Z,7.68
2022-11-07T13:56:44.408Z,8.43
2022-11-07T13:59:19.926Z,7.85
2022-11-07T14:01:55.102Z,5.38
2022-11-07T14:04:22.232Z,8.95
2022-11-07T14:06:50.801Z,6.63
2022-11-07T14:09:20.529Z,9.20
2022-11-07T14:11:49.887Z,7.22
2022-11-07T14:14:17.294Z,10.48
2022-11-07T14:16:47.170Z,7.63
2022-11-07T14:19:27.652Z,9.20
2022-11-07T14:21:56.217Z,10.35
2022-11-07T14:24:27.070Z,9.45
2022-11-07T14:27:06.411Z,6.50
2022-11-07T14:29:33.575Z,8.55
2022-11-07T14:32:03.221Z,9.23
2022-11-07T14:34:30.413Z,8.02
2022-11-07T14:37:00.922Z,6.65
2022-11-07T14:39:30.269Z,7.70
2022-11-07T14:41:59.403Z,11.80
2022-11-07T14:44:41.955Z,7.50
2022-11-07T14:47:20.754Z,10.75
2022-11-07T14:49:50.165Z,6.75
2022-11-07T14:52:26.096Z,8.85
2022-11-07T14:55:05.475Z,8.55
2022-11-07T14:57:37.735Z,8.50
2022-11-07T15:00:13.438Z,6.80
2022-11-07T15:02:40.461Z,6.65
2022-11-07T15:05:41.133Z,8.25
2022-11-07T15:08:34.008Z,8.68
2022-11-07T15:11:00.649Z,7.72
2022-11-07T15:13:30.197Z,9.98
2022-11-07T15:16:08.042Z,6.65
2022-11-07T15:18:41.489Z,11.73
2022-11-07T15:21:12.486Z,8.90
2022-11-07T15:23:39.202Z,7.38
2022-11-07T15:26:13.264Z,10.30
2022-11-07T15:28:43.124Z,10.80
2022-11-07T15:31:37.878Z,13.18
2022-11-07T15:34:11.099Z,11.35
2022-11-07T15:36:41.287Z,9.05
2022-11-07T15:39:10.067Z,7.53
2022-11-07T15:41:36.934Z,12.30
2022-11-07T15:44:03.862Z,11.13
2022-11-07T15:46:35.847Z,9.98
2022-11-07T15:49:03.578Z,8.52
2022-11-07T15:51:31.257Z,8.00
2022-11-07T15:53:58.434Z,7.03
2022-11-07T15:56:26.110Z,10.35
2022-11-07T15:58:54.802Z,13.18
2022-11-07T16:01:22.567Z,10.15
2022-11-07T16:03:49.497Z,12.52
2022-11-07T16:06:25.961Z,7.10
2022-11-07T16:08:53.514Z,15.90
2022-11-07T16:11:20.726Z,11.57
2022-11-07T16:13:47.511Z,16.83
2022-11-07T16:16:24.047Z,10.73
2022-11-07T16:18:52.765Z,11.63
2022-11-07T16:21:20.575Z,8.70
2022-11-07T16:23:50.155Z,8.10
2022-11-07T16:26:26.347Z,13.95
2022-11-07T16:28:53.198Z,9.20
2022-11-07T16:31:19.907Z,21.08
2022-11-07T16:33:46.911Z,13.68
2022-11-07T16:36:28.724Z,12.90
2022-11-07T16:38:55.581Z,9.50
2022-11-07T16:41:22.681Z,11.63
2022-11-07T16:43:49.961Z,11.75
2022-11-07T16:46:19.563Z,21.58
2022-11-07T16:48:49.096Z,12.68
2022-11-07T16:51:18.402Z,5.82
2022-11-07T16:53:45.962Z,9.70
2022-11-07T16:56:31.290Z,9.48
2022-11-07T16:58:59.283Z,11.13
2022-11-07T17:01:27.260Z,12.80
2022-11-07T17:03:54.593Z,8.00
2022-11-07T17:06:31.430Z,5.65
2022-11-07T17:09:07.254Z,9.70
2022-11-07T17:11:37.864Z,6.57
2022-11-07T17:14:04.917Z,9.98
2022-11-07T17:16:35.613Z,5.45
2022-11-07T17:19:04.427Z,4.80
2022-11-07T17:21:37.071Z,9.68
2022-11-07T17:24:04.537Z,5.53
2022-11-07T17:26:34.765Z,7.38
2022-11-07T17:29:02.835Z,7.00
2022-11-07T17:31:29.604Z,11.73
2022-11-07T17:33:56.426Z,8.30
2022-11-07T17:36:36.708Z,8.02
2022-11-07T17:39:11.627Z,9.45
2022-11-07T17:41:40.417Z,9.60
2022-11-07T17:44:07.630Z,6.70
2022-11-07T17:46:35.621Z,7.10
2022-11-07T17:49:06.974Z,7.15
2022-11-07T17:51:38.211Z,10.32
2022-11-07T17:54:05.165Z,6.05
2022-11-07T17:56:33.283Z,7.10
2022-11-07T17:59:06.399Z,7.88
2022-11-07T18:01:36.602Z,2.85
2022-11-07T18:04:05.103Z,4.05
2022-11-07T18:06:37.664Z,4.03
2022-11-07T18:09:06.474Z,7.18
2022-11-07T18:11:35.510Z,3.20
2022-11-07T18:14:02.590Z,4.18
2022-11-07T18:16:32.538Z,12.02
2022-11-07T18:19:00.374Z,5.18
2022-11-07T18:21:28.442Z,3.45
2022-11-07T18:23:55.999Z,4.30
2022-11-07T18:26:31.076Z,10.57
2022-11-07T18:29:02.554Z,5.75
2022-11-07T18:31:29.427Z,4.88
2022-11-07T18:33:58.326Z,4.72
2022-11-07T18:36:26.509Z,6.50
2022-11-07T18:38:53.414Z,5.53
2022-11-07T18:41:23.277Z,7.35
2022-11-07T18:43:53.057Z,4.97
2022-11-07T18:46:20.907Z,3.40
2022-11-07T18:48:48.381Z,2.85
2022-11-07T18:51:18.059Z,8.63
2022-11-07T18:53:45.458Z,3.72
2022-11-07T18:56:13.378Z,3.53
2022-11-07T18:58:43.457Z,3.13
2022-11-07T19:01:17.875Z,6.30
2022-11-07T19:03:45.696Z,8.25
2022-11-07T19:06:15.590Z,4.72
2022-11-07T19:08:44.730Z,5.47
2022-11-07T19:11:14.618Z,8.05
2022-11-07T19:13:43.070Z,6.25
2022-11-07T19:16:11.814Z,4.53
2022-11-07T19:18:39.045Z,3.13
2022-11-07T19:21:08.471Z,4.85
2022-11-07T19:23:37.127Z,5.10
2022-11-07T19:26:05.080Z,4.72
2022-11-07T19:28:32.169Z,6.47
2022-11-07T19:31:03.976Z,8.90
2022-11-07T19:33:30.759Z,4.45
2022-11-07T19:36:00.709Z,9.13
2022-11-07T19:38:28.717Z,5.72
2022-11-07T19:40:55.553Z,3.78
2022-11-07T19:43:22.705Z,5.80
2022-11-07T19:45:49.752Z,4.22
2022-11-07T19:48:17.090Z,6.47
2022-11-07T19:50:44.023Z,4.78
2022-11-07T19:53:10.945Z,4.50
2022-11-07T19:55:37.737Z,6.93
2022-11-07T19:58:06.434Z,4.47
2022-11-07T20:00:33.454Z,3.63
2022-11-07T20:03:01.074Z,5.00
2022-11-07T20:05:34.271Z,6.82
2022-11-07T20:08:05.257Z,5.25
2022-11-07T20:10:33.104Z,5.10
2022-11-07T20:12:59.937Z,4.63
2022-11-07T20:15:26.798Z,4.43
2022-11-07T20:17:53.568Z,3.65
2022-11-07T20:20:20.507Z,7.03
2022-11-07T20:22:50.600Z,12.32
2022-11-07T20:25:17.552Z,2.05
2022-11-07T20:27:44.790Z,1.35
2022-11-07T20:30:12.336Z,4.53
2022-11-07T20:32:40.354Z,2.95
2022-11-07T20:35:08.045Z,3.25
2022-11-07T20:37:35.745Z,3.45
2022-11-07T20:40:03.094Z,2.42
2022-11-07T20:42:29.831Z,5.00
2022-11-07T20:44:56.696Z,2.53
2022-11-07T20:47:23.845Z,3.08
2022-11-07T20:49:50.716Z,3.42
2022-11-07T20:52:18.122Z,4.15
2022-11-07T20:54:45.067Z,3.92
2022-11-07T20:57:11.781Z,4.15
2022-11-07T20:59:41.369Z,8.00
2022-11-07T21:02:13.201Z,1.70
2022-11-07T21:05:03.340Z,2.15
2022-11-07T21:07:26.705Z,6.13
2022-11-07T21:09:53.660Z,4.13
2022-11-07T21:12:20.519Z,9.93
2022-11-07T21:14:47.258Z,3.03
2022-11-07T21:17:16.253Z,2.88
2022-11-07T21:19:43.084Z,4.60
2022-11-07T21:22:09.950Z,6.85
2022-11-07T21:24:36.626Z,5.68
2022-11-07T21:27:04.043Z,2.63
2022-11-07T21:29:30.797Z,4.18
2022-11-07T21:31:57.655Z,3.80
2022-11-07T21:34:24.810Z,1.65
2022-11-07T21:36:51.561Z,2.22
2022-11-07T21:39:18.432Z,3.25
2022-11-07T21:41:45.420Z,1.92
2022-11-07T21:44:12.813Z,3.53
2022-11-07T21:46:39.945Z,1.45
2022-11-07T21:49:06.858Z,1.27
2022-11-07T21:51:36.940Z,1.77
2022-11-07T21:54:05.545Z,2.47
2022-11-07T21:56:35.444Z,1.17
2022-11-07T21:59:08.517Z,2.20
2022-11-07T22:01:36.980Z,1.45
2022-11-07T22:04:08.726Z,1.55
2022-11-07T22:06:38.700Z,2.13
2022-11-07T22:09:07.937Z,5.80
2022-11-07T22:11:35.085Z,4.45
2022-11-07T22:14:02.484Z,1.13
2022-11-07T22:16:29.580Z,0.75
2022-11-07T22:18:56.461Z,1.17
2022-11-07T22:21:23.821Z,1.05
2022-11-07T22:23:51.137Z,1.33
2022-11-07T22:26:23.197Z,2.00
2022-11-07T22:28:50.793Z,3.20
2022-11-07T22:31:20.496Z,1.02
2022-11-07T22:33:47.811Z,1.85
2022-11-07T22:36:15.629Z,0.98
2022-11-07T22:38:42.865Z,0.88
2022-11-07T22:41:13.620Z,1.17
2022-11-07T22:43:41.069Z,1.80
2022-11-07T22:46:13.487Z,1.85
2022-11-07T22:48:41.395Z,7.50
2022-11-07T22:51:11.409Z,2.35
2022-11-07T22:53:39.377Z,3.13
2022-11-07T22:56:14.618Z,5.50
2022-11-07T22:58:42.620Z,3.38
2022-11-07T23:01:35.977Z,0.60
2022-11-07T23:04:04.262Z,1.02
2022-11-07T23:06:31.375Z,3.90
2022-11-07T23:08:59.361Z,2.83
2022-11-07T23:11:50.048Z,0.57
2022-11-07T23:14:21.561Z,2.38
2022-11-07T23:16:50.893Z,3.72
2022-11-07T23:19:20.056Z,1.33
2022-11-07T23:21:47.034Z,0.98
2022-11-07T23:24:14.092Z,1.48
2022-11-07T23:26:41.622Z,2.95
2022-11-07T23:29:20.870Z,6.63
2022-11-07T23:31:49.978Z,3.30
2022-11-07T23:34:18.746Z,0.82
2022-11-07T23:36:45.889Z,3.22
2022-11-07T23:39:15.813Z,1.17
2022-11-07T23:41:42.927Z,4.82
2022-11-07T23:44:11.062Z,2.83
2022-11-07T23:46:56.771Z,1.13
2022-11-07T23:49:42.434Z,4.22
2022-11-07T23:54:54.469Z,1.45
2022-11-07T23:57:21.273Z,2.55
